Time;durP1;ratioP1;P1;durP2;ratioP2;P2;SDS_P1;SDS_P2;PMS_P1;PMS_P2;Temp;Humidity;BMP_temperature;BMP_pressure;BME280_temperature;BME280_humidity;BME280_pressure;Samples;Min_cycle;Max_cycle;Signal;HPM_P1;HPM_P2
2021/05/16 00:03:25;;;;;;;2.50;0.60;;;;;;;;;;10523123;28;20215;-72
2021/05/16 00:08:30;;;;;;;1.20;0.80;;;;;;;;;;10537805;28;20192;-71
2021/05/16 00:13:33;;;;;;;2.20;0.70;;;;;;;;;;10527717;28;20220;-71
2021/05/16 00:18:35;;;;;;;0.50;0.50;;;;;;;;;;10523059;28;20223;-72
2021/05/16 00:23:39;;;;;;;1.90;0.67;;;;;;;;;;10526007;28;20239;-72
2021/05/16 00:28:42;;;;;;;2.07;0.63;;;;;;;;;;10513003;28;20200;-72
2021/05/16 00:33:45;;;;;;;0.60;0.40;;;;;;;;;;10519808;28;20223;-71
2021/05/16 00:38:49;;;;;;;2.03;0.60;;;;;;;;;;10530672;28;20195;-71
2021/05/16 00:43:52;;;;;;;0.83;0.33;;;;;;;;;;10527834;28;20251;-71
2021/05/16 00:48:54;;;;;;;1.40;0.60;;;;;;;;;;10529677;28;20285;-71
2021/05/16 00:53:58;;;;;;;0.63;0.47;;;;;;;;;;10530043;28;20254;-71
2021/05/16 00:59:01;;;;;;;0.47;0.40;;;;;;;;;;10521061;28;20223;-72
2021/05/16 01:04:04;;;;;;;0.67;0.30;;;;;;;;;;10517206;28;20203;-71
2021/05/16 01:09:09;;;;;;;1.43;0.47;;;;;;;;;;10523365;28;20199;-71
2021/05/16 01:14:20;;;;;;;0.67;0.60;;;;;;;;;;10521919;28;20255;-72
2021/05/16 01:19:23;;;;;;;1.13;0.40;;;;;;;;;;10529014;28;20215;-69
2021/05/16 01:24:29;;;;;;;0.63;0.30;;;;;;;;;;10512750;28;20220;-69
2021/05/16 01:29:31;;;;;;;2.00;0.50;;;;;;;;;;10516113;28;20598;-71
2021/05/16 01:34:34;;;;;;;0.90;0.30;;;;;;;;;;10523776;28;20188;-71
2021/05/16 01:39:38;;;;;;;4.00;0.80;;;;;;;;;;10531307;28;20735;-72
2021/05/16 01:44:41;;;;;;;1.33;0.50;;;;;;;;;;10530862;28;20207;-71
2021/05/16 01:49:44;;;;;;;1.57;0.50;;;;;;;;;;10526418;28;20234;-73
2021/05/16 01:54:48;;;;;;;0.77;0.60;;;;;;;;;;10535513;28;20359;-72
2021/05/16 01:59:51;;;;;;;0.70;0.43;;;;;;;;;;10527538;28;20220;-72
2021/05/16 02:04:53;;;;;;;0.80;0.50;;;;;;;;;;10522329;28;20243;-72
2021/05/16 02:09:58;;;;;;;2.70;0.90;;;;;;;;;;10522024;28;20255;-72
2021/05/16 02:15:00;;;;;;;1.70;0.60;;;;;;;;;;10529428;28;20194;-71
2021/05/16 02:20:03;;;;;;;0.50;0.40;;;;;;;;;;10525314;28;20219;-72
2021/05/16 02:25:08;;;;;;;0.63;0.50;;;;;;;;;;10508037;28;20329;-70
2021/05/16 02:30:11;;;;;;;0.30;0.30;;;;;;;;;;10513455;28;20731;-71
2021/05/16 02:35:14;;;;;;;1.13;0.70;;;;;;;;;;10513136;28;20185;-71
2021/05/16 02:40:17;;;;;;;2.47;0.70;;;;;;;;;;10531203;28;20216;-71
2021/05/16 02:45:20;;;;;;;1.53;0.60;;;;;;;;;;10516105;28;20307;-71
2021/05/16 02:50:22;;;;;;;1.70;0.47;;;;;;;;;;10514497;28;20325;-71
2021/05/16 02:55:26;;;;;;;0.07;0.07;;;;;;;;;;10508318;28;20188;-72
2021/05/16 03:00:29;;;;;;;0.50;0.40;;;;;;;;;;10521663;28;20212;-71
2021/05/16 03:05:31;;;;;;;0.60;0.50;;;;;;;;;;10517524;28;20203;-72
2021/05/16 03:10:35;;;;;;;1.27;0.50;;;;;;;;;;10511310;28;20281;-71
2021/05/16 03:15:37;;;;;;;1.63;0.60;;;;;;;;;;10522675;28;20514;-70
2021/05/16 03:20:40;;;;;;;2.10;0.70;;;;;;;;;;10516826;28;20216;-71
2021/05/16 03:25:44;;;;;;;3.27;0.80;;;;;;;;;;10525900;28;20205;-71
2021/05/16 03:30:46;;;;;;;1.90;0.67;;;;;;;;;;10518567;28;20243;-70
2021/05/16 03:35:49;;;;;;;2.70;0.60;;;;;;;;;;10524781;28;20188;-71
2021/05/16 03:40:52;;;;;;;2.20;0.63;;;;;;;;;;10511747;28;20239;-73
2021/05/16 03:45:55;;;;;;;1.00;0.50;;;;;;;;;;10528798;28;20219;-72
2021/05/16 03:50:57;;;;;;;1.17;0.70;;;;;;;;;;10513811;28;20332;-71
2021/05/16 03:56:01;;;;;;;3.60;0.87;;;;;;;;;;10523527;28;20679;-72
2021/05/16 04:01:05;;;;;;;2.90;0.63;;;;;;;;;;10529558;28;20215;-71
2021/05/16 04:06:07;;;;;;;2.20;0.60;;;;;;;;;;10525218;28;20260;-71
2021/05/16 04:11:11;;;;;;;1.47;0.57;;;;;;;;;;10525349;28;20272;-72
2021/05/16 04:16:14;;;;;;;2.63;0.63;;;;;;;;;;10519072;28;20222;-72
2021/05/16 04:21:17;;;;;;;2.97;0.70;;;;;;;;;;10519643;28;20204;-72
2021/05/16 04:26:20;;;;;;;1.77;0.70;;;;;;;;;;10530175;28;20244;-72
2021/05/16 04:31:23;;;;;;;3.90;1.20;;;;;;;;;;10523163;28;20215;-72
2021/05/16 04:36:26;;;;;;;2.83;0.63;;;;;;;;;;10536625;28;20180;-72
2021/05/16 04:41:32;;;;;;;3.17;0.77;;;;;;;;;;10536469;28;20321;-72
2021/05/16 04:46:35;;;;;;;2.87;0.90;;;;;;;;;;10532935;28;20311;-72
2021/05/16 04:51:37;;;;;;;6.60;1.10;;;;;;;;;;10518903;28;20220;-71
2021/05/16 04:56:41;;;;;;;2.53;1.00;;;;;;;;;;10535222;28;20214;-71
2021/05/16 05:01:44;;;;;;;2.17;0.77;;;;;;;;;;10526258;28;20644;-71
2021/05/16 05:06:46;;;;;;;2.80;0.93;;;;;;;;;;10535547;28;20315;-70
2021/05/16 05:11:49;;;;;;;2.20;0.80;;;;;;;;;;10527239;28;20239;-71
2021/05/16 05:16:52;;;;;;;3.17;1.00;;;;;;;;;;10536763;28;20240;-71
2021/05/16 05:21:54;;;;;;;3.43;0.80;;;;;;;;;;10531497;28;20218;-71
2021/05/16 05:26:58;;;;;;;2.00;0.70;;;;;;;;;;10532861;28;20215;-71
2021/05/16 05:32:01;;;;;;;1.37;0.70;;;;;;;;;;10520819;28;20260;-72
2021/05/16 05:37:04;;;;;;;2.80;0.80;;;;;;;;;;10521348;28;20192;-72
2021/05/16 05:42:07;;;;;;;6.97;1.40;;;;;;;;;;10522891;28;20215;-71
2021/05/16 05:47:11;;;;;;;2.77;1.00;;;;;;;;;;10524015;28;20223;-71
2021/05/16 05:52:14;;;;;;;2.63;1.00;;;;;;;;;;10524607;28;20260;-71
2021/05/16 05:57:18;;;;;;;2.20;0.87;;;;;;;;;;10533464;28;20192;-72
2021/05/16 06:02:23;;;;;;;3.43;1.17;;;;;;;;;;10519761;28;20222;-72
2021/05/16 06:07:26;;;;;;;3.13;1.00;;;;;;;;;;10524148;28;20211;-71
2021/05/16 06:12:30;;;;;;;2.37;0.87;;;;;;;;;;10529131;28;20771;-72
2021/05/16 06:17:32;;;;;;;4.03;1.13;;;;;;;;;;10526667;28;20261;-71
2021/05/16 06:22:35;;;;;;;2.60;0.87;;;;;;;;;;10521378;28;20224;-72
2021/05/16 06:27:39;;;;;;;3.33;1.20;;;;;;;;;;10530586;28;20326;-71
2021/05/16 06:32:42;;;;;;;2.77;0.93;;;;;;;;;;10533307;28;20699;-72
2021/05/16 06:37:45;;;;;;;3.93;1.00;;;;;;;;;;10523004;28;20448;-71
2021/05/16 06:42:48;;;;;;;4.77;1.17;;;;;;;;;;10521294;28;20219;-71
2021/05/16 06:47:51;;;;;;;3.50;0.90;;;;;;;;;;10521661;28;20673;-71
2021/05/16 06:52:53;;;;;;;3.87;1.10;;;;;;;;;;10518235;28;20277;-71
2021/05/16 06:57:56;;;;;;;3.73;1.10;;;;;;;;;;10515050;28;20295;-71
2021/05/16 07:02:59;;;;;;;4.50;1.03;;;;;;;;;;10520663;28;20261;-71
2021/05/16 07:08:02;;;;;;;4.27;1.17;;;;;;;;;;10517369;28;20214;-71
2021/05/16 07:13:05;;;;;;;3.03;0.90;;;;;;;;;;10519177;28;20261;-70
2021/05/16 07:18:07;;;;;;;4.20;1.20;;;;;;;;;;10523925;28;20188;-71
2021/05/16 07:23:09;;;;;;;4.20;1.30;;;;;;;;;;10521318;28;20730;-72
2021/05/16 07:28:12;;;;;;;6.50;1.23;;;;;;;;;;10528544;28;20200;-70
2021/05/16 07:33:15;;;;;;;4.17;1.30;;;;;;;;;;10521517;28;20207;-70
2021/05/16 07:38:17;;;;;;;2.67;0.80;;;;;;;;;;10519002;28;20198;-70
2021/05/16 07:43:20;;;;;;;3.20;0.97;;;;;;;;;;10522650;28;20223;-70
2021/05/16 07:48:28;;;;;;;5.03;1.30;;;;;;;;;;10518738;28;20555;-70
2021/05/16 07:53:31;;;;;;;4.50;1.10;;;;;;;;;;10517173;28;20235;-70
2021/05/16 07:58:35;;;;;;;3.73;1.10;;;;;;;;;;10514166;28;20192;-71
2021/05/16 08:03:37;;;;;;;3.38;0.93;;;;;;;;;;10525348;28;20289;-71
2021/05/16 08:08:39;;;;;;;4.15;1.40;;;;;;;;;;10521743;28;20200;-72
2021/05/16 08:13:42;;;;;;;3.53;1.20;;;;;;;;;;10518916;28;20204;-70
2021/05/16 08:18:46;;;;;;;3.63;1.10;;;;;;;;;;10515543;28;20287;-71
2021/05/16 08:23:48;;;;;;;4.65;1.17;;;;;;;;;;10516813;28;20306;-70
2021/05/16 08:28:51;;;;;;;4.25;1.25;;;;;;;;;;10522857;28;20226;-71
2021/05/16 08:33:55;;;;;;;3.13;1.13;;;;;;;;;;10497118;28;20215;-71
2021/05/16 08:38:58;;;;;;;1.10;1.00;;;;;;;;;;10497822;28;20291;-70
2021/05/16 08:44:02;;;;;;;3.58;1.13;;;;;;;;;;10508314;28;20215;-70
2021/05/16 08:49:04;;;;;;;3.67;1.10;;;;;;;;;;10507984;28;20281;-70
2021/05/16 08:54:06;;;;;;;2.85;1.15;;;;;;;;;;10509815;28;20604;-70
2021/05/16 08:59:09;;;;;;;3.60;1.13;;;;;;;;;;10514013;28;20203;-70
2021/05/16 09:04:18;;;;;;;3.90;1.15;;;;;;;;;;10510227;28;20218;-70
2021/05/16 09:09:23;;;;;;;4.68;1.10;;;;;;;;;;10509391;28;20282;-70
2021/05/16 09:14:46;;;;;;;2.58;1.00;;;;;;;;;;10518411;28;20302;-70
2021/05/16 09:19:50;;;;;;;3.58;1.10;;;;;;;;;;10504384;28;20665;-71
2021/05/16 09:25:03;;;;;;;3.75;1.20;;;;;;;;;;10509353;28;20655;-71
2021/05/16 09:30:25;;;;;;;4.70;1.55;;;;;;;;;;10504198;28;20315;-71
2021/05/16 09:35:32;;;;;;;3.22;1.40;;;;;;;;;;10508331;28;20266;-69
2021/05/16 09:40:38;;;;;;;4.30;1.35;;;;;;;;;;10508578;28;20241;-72
2021/05/16 09:45:41;;;;;;;3.25;1.30;;;;;;;;;;10500375;28;20616;-71
2021/05/16 09:50:44;;;;;;;3.42;1.30;;;;;;;;;;10505188;28;20212;-71
2021/05/16 09:55:46;;;;;;;2.15;1.40;;;;;;;;;;10521179;28;20283;-69
2021/05/16 10:00:48;;;;;;;3.25;1.30;;;;;;;;;;10519152;28;20295;-71
2021/05/16 10:05:51;;;;;;;4.25;1.50;;;;;;;;;;10523365;28;20260;-69
2021/05/16 10:10:53;;;;;;;2.70;1.33;;;;;;;;;;10507755;28;20691;-71
2021/05/16 10:15:56;;;;;;;5.15;1.42;;;;;;;;;;10518108;28;20196;-70
2021/05/16 10:21:04;;;;;;;2.95;1.20;;;;;;;;;;10513751;28;20293;-71
2021/05/16 10:26:30;;;;;;;2.88;1.40;;;;;;;;;;10511812;28;20223;-71
2021/05/16 10:31:43;;;;;;;4.18;1.40;;;;;;;;;;10496844;28;20638;-69
2021/05/16 10:36:46;;;;;;;1.88;0.90;;;;;;;;;;10522449;28;20198;-70
2021/05/16 10:42:10;;;;;;;2.08;1.13;;;;;;;;;;10503579;28;20240;-71
2021/05/16 10:47:37;;;;;;;3.30;1.08;;;;;;;;;;10507680;28;20395;-69
2021/05/16 10:52:40;;;;;;;4.78;1.63;;;;;;;;;;10520841;28;20562;-69
2021/05/16 10:57:42;;;;;;;4.57;1.60;;;;;;;;;;10514730;28;20198;-70
2021/05/16 11:03:01;;;;;;;2.17;1.05;;;;;;;;;;10514347;28;20222;-72
2021/05/16 11:08:05;;;;;;;2.65;1.13;;;;;;;;;;10532011;28;20271;-70
2021/05/16 11:13:08;;;;;;;3.53;1.40;;;;;;;;;;10521568;28;20254;-71
2021/05/16 11:18:10;;;;;;;4.18;1.20;;;;;;;;;;10517965;28;20270;-71
2021/05/16 11:23:21;;;;;;;2.92;1.13;;;;;;;;;;10523484;28;20347;-71
2021/05/16 11:28:23;;;;;;;2.97;1.10;;;;;;;;;;10524652;28;20226;-72
2021/05/16 11:33:26;;;;;;;4.32;1.30;;;;;;;;;;10525046;28;20218;-70
2021/05/16 11:38:29;;;;;;;3.58;1.00;;;;;;;;;;10529217;28;20192;-70
2021/05/16 11:43:32;;;;;;;2.70;1.10;;;;;;;;;;10530126;28;20220;-71
2021/05/16 11:48:38;;;;;;;2.78;1.23;;;;;;;;;;10520144;28;20215;-70
2021/05/16 11:53:42;;;;;;;3.25;1.55;;;;;;;;;;10520600;28;20610;-72
2021/05/16 11:58:47;;;;;;;3.55;1.10;;;;;;;;;;10514960;28;20253;-70
2021/05/16 12:03:56;;;;;;;2.13;1.00;;;;;;;;;;10535669;28;20219;-69
2021/05/16 12:09:05;;;;;;;2.33;1.10;;;;;;;;;;10525563;28;20211;-70
2021/05/16 12:14:08;;;;;;;2.63;1.10;;;;;;;;;;10523314;28;20196;-70
2021/05/16 12:19:10;;;;;;;3.80;1.20;;;;;;;;;;10520017;28;20200;-70
2021/05/16 12:24:15;;;;;;;2.05;1.00;;;;;;;;;;10520484;28;20187;-70
2021/05/16 12:29:18;;;;;;;1.17;0.65;;;;;;;;;;10529557;28;20618;-70
2021/05/16 12:34:23;;;;;;;1.85;0.80;;;;;;;;;;10532615;28;20192;-72
2021/05/16 12:39:36;;;;;;;3.65;1.30;;;;;;;;;;10521230;28;21146;-72
2021/05/16 12:44:38;;;;;;;2.28;0.95;;;;;;;;;;10535445;28;20245;-71
2021/05/16 12:49:40;;;;;;;2.67;0.90;;;;;;;;;;10521749;28;20826;-71
2021/05/16 12:54:43;;;;;;;2.45;0.80;;;;;;;;;;10515126;28;20188;-71
2021/05/16 12:59:45;;;;;;;1.83;0.90;;;;;;;;;;10526069;28;20220;-71
2021/05/16 13:04:48;;;;;;;2.72;1.05;;;;;;;;;;10526052;28;20493;-71
2021/05/16 13:09:51;;;;;;;2.08;0.90;;;;;;;;;;10513405;28;20219;-70
2021/05/16 13:14:54;;;;;;;5.38;1.50;;;;;;;;;;10519732;28;20537;-69
2021/05/16 13:19:56;;;;;;;2.90;0.93;;;;;;;;;;10519333;28;20655;-71
2021/05/16 13:24:59;;;;;;;4.32;1.15;;;;;;;;;;10531103;28;20208;-72
2021/05/16 13:30:05;;;;;;;2.50;0.77;;;;;;;;;;10531189;28;20559;-71
2021/05/16 13:35:08;;;;;;;3.67;0.97;;;;;;;;;;10533734;28;20579;-70
2021/05/16 13:40:12;;;;;;;2.23;1.00;;;;;;;;;;10526844;28;20216;-71
2021/05/16 13:45:14;;;;;;;2.67;1.17;;;;;;;;;;10522669;28;20261;-72
2021/05/16 13:50:16;;;;;;;2.67;1.10;;;;;;;;;;10522745;28;20428;-72
2021/05/16 13:55:20;;;;;;;2.47;0.70;;;;;;;;;;10523129;28;20260;-71
2021/05/16 14:00:22;;;;;;;3.47;0.90;;;;;;;;;;10526697;28;20662;-71
2021/05/16 14:05:25;;;;;;;1.70;0.80;;;;;;;;;;10525487;28;20707;-72
2021/05/16 14:10:28;;;;;;;2.50;0.90;;;;;;;;;;10526330;28;20699;-72
2021/05/16 14:15:30;;;;;;;3.23;1.83;;;;;;;;;;10523188;28;20203;-71
2021/05/16 14:20:32;;;;;;;2.20;0.70;;;;;;;;;;10519849;28;20224;-71
2021/05/16 14:25:36;;;;;;;3.00;1.33;;;;;;;;;;10524777;28;20222;-71
2021/05/16 14:30:41;;;;;;;2.87;1.20;;;;;;;;;;10514836;28;20215;-73
2021/05/16 14:35:43;;;;;;;2.77;1.00;;;;;;;;;;10526158;28;20210;-71
2021/05/16 14:40:46;;;;;;;1.70;0.80;;;;;;;;;;10522653;28;20271;-70
2021/05/16 14:45:48;;;;;;;1.57;0.90;;;;;;;;;;10521406;28;20213;-72
2021/05/16 14:50:56;;;;;;;1.27;0.70;;;;;;;;;;10518719;28;20220;-72
2021/05/16 14:55:59;;;;;;;3.03;0.77;;;;;;;;;;10523643;28;20191;-71
2021/05/16 15:01:01;;;;;;;1.60;0.80;;;;;;;;;;10516055;28;20245;-72
2021/05/16 15:06:04;;;;;;;3.43;1.10;;;;;;;;;;10517753;28;20234;-71
2021/05/16 15:11:07;;;;;;;3.57;1.17;;;;;;;;;;10513973;28;20239;-74
2021/05/16 15:16:12;;;;;;;2.20;1.00;;;;;;;;;;10521615;28;20194;-72
2021/05/16 15:21:15;;;;;;;2.73;1.00;;;;;;;;;;10520890;28;20222;-72
2021/05/16 15:26:18;;;;;;;1.40;0.73;;;;;;;;;;10516925;28;20208;-72
2021/05/16 15:31:20;;;;;;;1.60;0.70;;;;;;;;;;10529796;28;20235;-71
2021/05/16 15:36:22;;;;;;;1.73;0.60;;;;;;;;;;10526543;28;20334;-73
2021/05/16 15:41:25;;;;;;;1.87;0.80;;;;;;;;;;10519111;28;20219;-72
2021/05/16 15:46:27;;;;;;;3.23;0.90;;;;;;;;;;10543738;28;20275;-72
2021/05/16 15:51:29;;;;;;;1.80;0.70;;;;;;;;;;10519133;28;20276;-71
2021/05/16 15:56:32;;;;;;;2.07;0.83;;;;;;;;;;10530854;28;20184;-72
2021/05/16 16:01:35;;;;;;;1.27;0.40;;;;;;;;;;10521472;28;20590;-71
2021/05/16 16:06:38;;;;;;;1.33;0.70;;;;;;;;;;10523774;28;20219;-72
2021/05/16 16:11:41;;;;;;;3.53;1.27;;;;;;;;;;10516797;28;20223;-72
2021/05/16 16:16:43;;;;;;;0.20;0.20;;;;;;;;;;10527424;28;20206;-72
2021/05/16 16:21:45;;;;;;;1.47;0.80;;;;;;;;;;10531952;28;20216;-72
2021/05/16 16:26:48;;;;;;;1.53;0.73;;;;;;;;;;10532099;28;20228;-71
2021/05/16 16:31:51;;;;;;;2.40;0.80;;;;;;;;;;10531808;28;20497;-73
2021/05/16 16:36:54;;;;;;;1.60;0.70;;;;;;;;;;10524153;28;20200;-71
2021/05/16 16:41:57;;;;;;;1.70;0.90;;;;;;;;;;10527818;28;20328;-69
2021/05/16 16:47:00;;;;;;;1.70;0.70;;;;;;;;;;10522974;28;20649;-72
2021/05/16 16:52:03;;;;;;;1.03;0.33;;;;;;;;;;10523506;28;20214;-70
2021/05/16 16:57:07;;;;;;;2.00;0.73;;;;;;;;;;10526580;28;20274;-71
2021/05/16 17:02:09;;;;;;;1.27;0.80;;;;;;;;;;10529189;28;20261;-72
2021/05/16 17:07:13;;;;;;;0.57;0.50;;;;;;;;;;10530359;28;20223;-71
2021/05/16 17:12:16;;;;;;;2.47;0.70;;;;;;;;;;10526648;28;20288;-72
2021/05/16 17:17:18;;;;;;;3.00;0.90;;;;;;;;;;10529338;28;20207;-71
2021/05/16 17:22:24;;;;;;;0.73;0.73;;;;;;;;;;10523767;28;20212;-71
2021/05/16 17:27:27;;;;;;;1.80;0.80;;;;;;;;;;10521357;28;20704;-71
2021/05/16 17:32:29;;;;;;;2.07;0.77;;;;;;;;;;10517519;28;20703;-71
2021/05/16 17:37:32;;;;;;;1.13;0.80;;;;;;;;;;10523058;28;20211;-72
2021/05/16 17:42:35;;;;;;;1.10;0.77;;;;;;;;;;10523785;28;20249;-70
2021/05/16 17:47:37;;;;;;;1.83;0.83;;;;;;;;;;10521918;28;20207;-71
2021/05/16 17:52:39;;;;;;;1.00;0.73;;;;;;;;;;10522984;28;20235;-71
2021/05/16 17:57:43;;;;;;;0.90;0.70;;;;;;;;;;10522841;28;20188;-71
2021/05/16 18:02:46;;;;;;;0.90;0.67;;;;;;;;;;10523643;28;20215;-71
2021/05/16 18:07:48;;;;;;;2.23;0.80;;;;;;;;;;10524804;28;20211;-71
2021/05/16 18:12:52;;;;;;;1.10;0.63;;;;;;;;;;10514031;28;20360;-71
2021/05/16 18:17:54;;;;;;;0.63;0.40;;;;;;;;;;10500670;28;20199;-71
2021/05/16 18:22:57;;;;;;;2.17;1.07;;;;;;;;;;10510994;28;20216;-70
2021/05/16 18:28:00;;;;;;;2.70;1.00;;;;;;;;;;10492883;28;20220;-69
2021/05/16 18:33:02;;;;;;;1.27;0.63;;;;;;;;;;10514105;28;20314;-71
2021/05/16 18:38:04;;;;;;;3.70;1.43;;;;;;;;;;10497007;28;20198;-69
2021/05/16 18:43:09;;;;;;;1.00;0.50;;;;;;;;;;10503075;28;20212;-70
2021/05/16 18:48:12;;;;;;;0.83;0.60;;;;;;;;;;10522350;28;20216;-70
2021/05/16 18:53:14;;;;;;;2.73;0.83;;;;;;;;;;10497259;28;20208;-70
2021/05/16 18:58:37;;;;;;;1.43;0.67;;;;;;;;;;10497867;28;20179;-70
2021/05/16 19:03:40;;;;;;;0.90;0.47;;;;;;;;;;10522528;28;20307;-67
2021/05/16 19:08:42;;;;;;;3.63;1.20;;;;;;;;;;10519378;28;20294;-68
2021/05/16 19:13:45;;;;;;;0.53;0.53;;;;;;;;;;10493780;28;20735;-69
2021/05/16 19:18:47;;;;;;;2.73;0.97;;;;;;;;;;10504657;28;20202;-68
2021/05/16 19:23:49;;;;;;;1.13;0.60;;;;;;;;;;10526077;28;20250;-69
2021/05/16 19:28:52;;;;;;;1.70;0.93;;;;;;;;;;10521411;28;20262;-67
2021/05/16 19:33:55;;;;;;;1.07;0.60;;;;;;;;;;10524223;28;20235;-71
2021/05/16 19:38:57;;;;;;;2.65;1.02;;;;;;;;;;10516385;28;20447;-72
2021/05/16 19:44:00;;;;;;;1.87;0.80;;;;;;;;;;10517678;28;20219;-72
2021/05/16 19:49:02;;;;;;;2.27;1.30;;;;;;;;;;10530001;28;20285;-71
2021/05/16 19:54:05;;;;;;;1.43;0.90;;;;;;;;;;10522911;28;21265;-71
2021/05/16 19:59:08;;;;;;;2.30;0.97;;;;;;;;;;10527613;28;20192;-71
2021/05/16 20:04:10;;;;;;;1.93;0.90;;;;;;;;;;10509194;28;20196;-74
2021/05/16 20:09:13;;;;;;;3.07;1.07;;;;;;;;;;10499342;28;20219;-75
2021/05/16 20:14:16;;;;;;;2.37;1.03;;;;;;;;;;10512757;28;20199;-74
2021/05/16 20:19:18;;;;;;;1.77;0.60;;;;;;;;;;10522290;28;20563;-75
2021/05/16 20:24:20;;;;;;;1.13;0.60;;;;;;;;;;10513127;28;20632;-75
2021/05/16 20:29:29;;;;;;;2.00;0.97;;;;;;;;;;10519610;28;20215;-76
2021/05/16 20:34:31;;;;;;;0.77;0.40;;;;;;;;;;10530200;28;20202;-75
2021/05/16 20:39:34;;;;;;;2.17;0.80;;;;;;;;;;10538751;28;20277;-75
2021/05/16 20:44:37;;;;;;;1.90;0.80;;;;;;;;;;10527576;28;20200;-77
2021/05/16 20:49:40;;;;;;;1.23;0.70;;;;;;;;;;10520272;28;20229;-74
2021/05/16 20:54:42;;;;;;;2.00;0.90;;;;;;;;;;10539575;28;20688;-75
2021/05/16 20:59:46;;;;;;;2.60;1.30;;;;;;;;;;10527826;28;20212;-73
2021/05/16 21:04:48;;;;;;;1.60;0.70;;;;;;;;;;10526120;28;20188;-74
2021/05/16 21:09:50;;;;;;;3.00;0.70;;;;;;;;;;10520206;28;20307;-75
2021/05/16 21:14:53;;;;;;;1.83;0.83;;;;;;;;;;10524363;28;20647;-75
2021/05/16 21:19:56;;;;;;;1.83;1.00;;;;;;;;;;10522041;28;20224;-74
2021/05/16 21:24:58;;;;;;;1.70;1.00;;;;;;;;;;10525478;28;20298;-73
2021/05/16 21:30:01;;;;;;;0.97;0.63;;;;;;;;;;10529522;28;20306;-75
2021/05/16 21:35:22;;;;;;;1.43;0.90;;;;;;;;;;10523264;28;20232;-75
2021/05/16 21:40:25;;;;;;;0.90;0.50;;;;;;;;;;10524055;28;20652;-74
2021/05/16 21:45:29;;;;;;;0.73;0.60;;;;;;;;;;10523257;28;20251;-75
2021/05/16 21:50:32;;;;;;;1.10;0.67;;;;;;;;;;10517118;28;20645;-75
2021/05/16 21:55:34;;;;;;;1.33;0.63;;;;;;;;;;10522580;28;20200;-76
2021/05/16 22:00:37;;;;;;;2.07;0.70;;;;;;;;;;10522324;28;20212;-75
2021/05/16 22:05:39;;;;;;;1.07;0.73;;;;;;;;;;10517902;28;20261;-75
2021/05/16 22:10:42;;;;;;;1.10;0.67;;;;;;;;;;10520514;28;20736;-75
2021/05/16 22:15:46;;;;;;;1.00;0.50;;;;;;;;;;10521538;28;20195;-75
2021/05/16 22:20:50;;;;;;;0.97;0.40;;;;;;;;;;10524032;28;20211;-75
2021/05/16 22:25:53;;;;;;;1.00;0.40;;;;;;;;;;10522242;28;20199;-75
2021/05/16 22:30:56;;;;;;;0.30;0.30;;;;;;;;;;10520967;28;20222;-74
2021/05/16 22:35:58;;;;;;;0.83;0.50;;;;;;;;;;10525442;28;20206;-74
2021/05/16 22:41:01;;;;;;;0.60;0.60;;;;;;;;;;10523306;28;20251;-74
2021/05/16 22:46:04;;;;;;;2.30;0.47;;;;;;;;;;10525155;28;20191;-74
2021/05/16 22:51:06;;;;;;;0.60;0.40;;;;;;;;;;10521161;28;20260;-74
2021/05/16 22:56:09;;;;;;;0.80;0.30;;;;;;;;;;10520255;28;20559;-74
2021/05/16 23:01:12;;;;;;;0.50;0.30;;;;;;;;;;10524131;28;20268;-74
2021/05/16 23:06:14;;;;;;;1.47;0.50;;;;;;;;;;10520951;28;20203;-75
2021/05/16 23:11:17;;;;;;;1.80;0.60;;;;;;;;;;10520799;28;20272;-75
2021/05/16 23:16:20;;;;;;;0.93;0.40;;;;;;;;;;10523977;28;20196;-74
2021/05/16 23:21:22;;;;;;;0.83;0.40;;;;;;;;;;10523556;28;20219;-75
2021/05/16 23:26:25;;;;;;;0.63;0.40;;;;;;;;;;10523499;28;20264;-73
2021/05/16 23:31:28;;;;;;;0.37;0.30;;;;;;;;;;10520789;28;20295;-75
2021/05/16 23:36:31;;;;;;;0.70;0.20;;;;;;;;;;10517354;28;20207;-76
2021/05/16 23:41:33;;;;;;;1.63;0.60;;;;;;;;;;10507382;28;20240;-74
2021/05/16 23:46:37;;;;;;;1.70;0.40;;;;;;;;;;10515471;28;20275;-74
2021/05/16 23:51:39;;;;;;;0.40;0.40;;;;;;;;;;10515705;28;20352;-74
2021/05/16 23:56:42;;;;;;;0.40;0.30;;;;;;;;;;10526373;28;20330;-73
